Terminal Aerodrome Forecast
Issued by NWS

Home | Current Version | Previous Version | Text Only | Print | Product List | Glossary On
Versions: 1 2 3 4 5 6 7 8 9 10 11 12 13 14 15
967
FTUS41 KCAR 121128
TAFHUL
TAF
KHUL 121128Z 1212/1312 29008KT P6SM FEW030 SCT045
     FM122000 26007KT P6SM SCT035
     FM122300 VRB03KT P6SM SCT040
     FM130200 VRB03KT P6SM BKN035
     FM130700 10004KT P6SM VCSH OVC028=

USA.gov is the U.S. government's official web portal to all federal, state and local government web resources and services.